createdAt,value
2023-04-09T00:01:33.667Z,4.80
2023-04-09T00:04:01.742Z,4.82
2023-04-09T00:06:29.687Z,4.65
2023-04-09T00:08:57.716Z,4.78
2023-04-09T00:11:27.144Z,4.72
2023-04-09T00:13:55.085Z,4.70
2023-04-09T00:16:23.054Z,4.78
2023-04-09T00:18:51.969Z,4.70
2023-04-09T00:21:20.691Z,4.80
2023-04-09T00:23:48.609Z,4.43
2023-04-09T00:26:16.631Z,5.22
2023-04-09T00:28:46.087Z,4.70
2023-04-09T00:31:14.000Z,4.60
2023-04-09T00:33:42.143Z,4.40
2023-04-09T00:36:10.198Z,4.78
2023-04-09T00:38:38.248Z,4.45
2023-04-09T00:41:06.368Z,4.50
2023-04-09T00:43:34.325Z,4.50
2023-04-09T00:50:03.620Z,4.25
2023-04-09T00:52:31.521Z,4.75
2023-04-09T00:55:00.448Z,4.43
2023-04-09T00:57:28.929Z,5.20
2023-04-09T00:59:57.012Z,4.40
2023-04-09T02:12:48.792Z,3.97
2023-04-09T02:15:16.877Z,4.00
2023-04-09T02:17:44.836Z,4.50
2023-04-09T02:20:13.786Z,4.50
2023-04-09T02:22:41.672Z,4.32
2023-04-09T02:25:09.772Z,4.30
2023-04-09T02:27:37.722Z,4.32
2023-04-09T02:30:08.484Z,4.50
2023-04-09T02:32:36.430Z,4.65
2023-04-09T02:35:04.788Z,4.07
2023-04-09T02:37:32.664Z,4.30
2023-04-09T02:40:00.642Z,4.00
2023-04-09T02:42:28.605Z,4.45
2023-04-09T02:44:56.458Z,4.30
2023-04-09T02:47:27.221Z,4.30
2023-04-09T02:49:55.173Z,4.20
2023-04-09T02:52:26.064Z,4.38
2023-04-09T02:54:54.036Z,4.25
2023-04-09T02:57:22.068Z,4.32
2023-04-09T02:59:50.017Z,4.18
2023-04-09T03:02:18.129Z,3.97
2023-04-09T03:04:47.699Z,4.00
2023-04-09T03:07:15.609Z,3.90
2023-04-09T03:09:43.539Z,4.10
2023-04-09T03:12:11.617Z,3.75
2023-04-09T03:14:39.632Z,4.00
2023-04-09T03:17:07.553Z,4.20
2023-04-09T03:19:35.532Z,3.80
2023-04-09T03:22:04.920Z,3.97
2023-04-09T03:24:33.298Z,3.83
2023-04-09T03:27:01.577Z,4.22
2023-04-09T03:29:29.621Z,4.00
2023-04-09T03:31:57.626Z,3.80
2023-04-09T03:34:25.739Z,4.18
2023-04-09T03:36:53.704Z,4.13
2023-04-09T03:39:22.996Z,4.10
2023-04-09T03:41:50.992Z,3.95
2023-04-09T03:44:19.030Z,3.80
2023-04-09T03:46:46.986Z,3.88
2023-04-09T03:49:15.129Z,3.75
2023-04-09T03:51:44.635Z,4.47
2023-04-09T03:54:12.670Z,3.53
2023-04-09T03:56:42.095Z,4.03
2023-04-09T03:59:10.114Z,4.25
2023-04-09T04:01:38.150Z,4.38
2023-04-09T04:04:06.310Z,4.40
2023-04-09T04:06:34.919Z,3.50
2023-04-09T04:09:02.922Z,3.88
2023-04-09T04:11:31.234Z,3.63
2023-04-09T04:14:00.684Z,3.92
2023-04-09T04:16:28.676Z,4.05
2023-04-09T04:18:56.768Z,3.42
2023-04-09T04:21:24.782Z,4.20
2023-04-09T04:23:52.731Z,3.55
2023-04-09T04:26:20.839Z,3.53
2023-04-09T04:28:48.718Z,3.70
2023-04-09T04:31:18.012Z,3.72
2023-04-09T04:33:45.985Z,3.67
2023-04-09T04:36:14.609Z,3.80
2023-04-09T04:38:42.752Z,3.40
2023-04-09T04:41:11.670Z,3.90
2023-04-09T04:43:41.433Z,3.85
2023-04-09T04:46:09.477Z,3.90
2023-04-09T04:48:38.885Z,3.95
2023-04-09T04:51:07.005Z,3.85
2023-04-09T04:53:34.955Z,4.03
2023-04-09T04:56:02.823Z,3.53
2023-04-09T04:58:31.077Z,3.72
2023-04-09T05:01:00.436Z,4.03
2023-04-09T05:03:28.513Z,4.32
2023-04-09T05:05:57.882Z,3.92
2023-04-09T05:08:25.833Z,3.72
2023-04-09T05:10:56.191Z,3.78
2023-04-09T05:13:24.801Z,3.83
2023-04-09T05:15:52.776Z,3.47
2023-04-09T05:18:20.839Z,3.67
2023-04-09T05:20:48.839Z,3.50
2023-04-09T05:23:18.174Z,3.78
2023-04-09T05:25:46.249Z,3.50
2023-04-09T05:28:14.297Z,3.50
2023-04-09T05:30:42.409Z,3.55
2023-04-09T05:33:10.494Z,3.78
2023-04-09T05:35:40.083Z,3.80
2023-04-09T05:38:08.040Z,3.30
2023-04-09T05:40:37.475Z,3.53
2023-04-09T05:43:05.647Z,3.83
2023-04-09T05:45:33.658Z,3.58
2023-04-09T05:48:01.930Z,3.50
2023-04-09T05:50:30.050Z,3.40
2023-04-09T05:52:58.013Z,3.83
2023-04-09T05:55:26.018Z,3.83
2023-04-09T05:57:55.399Z,3.40
2023-04-09T06:00:23.347Z,3.70
2023-04-09T06:02:51.494Z,3.80
2023-04-09T06:05:19.621Z,3.53
2023-04-09T06:07:47.611Z,3.80
2023-04-09T06:10:15.615Z,3.25
2023-04-09T06:12:43.794Z,3.70
2023-04-09T06:15:13.385Z,3.65
2023-04-09T06:17:41.460Z,3.50
2023-04-09T06:20:10.552Z,3.50
2023-04-09T06:22:38.536Z,3.58
2023-04-09T06:25:07.288Z,3.20
2023-04-09T06:27:35.265Z,3.50
2023-04-09T06:30:03.308Z,3.40
2023-04-09T06:32:37.653Z,3.15
2023-04-09T06:35:11.725Z,3.25
2023-04-09T06:37:39.710Z,3.58
2023-04-09T06:40:08.888Z,2.97
2023-04-09T06:42:37.733Z,3.38
2023-04-09T06:45:08.762Z,3.50
2023-04-09T06:47:38.372Z,3.13
2023-04-09T06:50:07.358Z,3.40
2023-04-09T06:52:35.413Z,3.20
2023-04-09T06:55:03.401Z,2.83
2023-04-09T06:57:31.373Z,3.30
2023-04-09T06:59:59.637Z,3.00
2023-04-09T07:04:56.943Z,3.60
2023-04-09T07:07:25.835Z,3.22
2023-04-09T07:09:54.172Z,3.17
2023-04-09T07:12:28.269Z,2.95
2023-04-09T07:14:59.169Z,3.08
2023-04-09T07:17:27.149Z,3.33
2023-04-09T07:19:56.571Z,3.00
2023-04-09T07:22:24.754Z,3.10
2023-04-09T07:24:55.169Z,2.90
2023-04-09T07:27:23.366Z,3.13
2023-04-09T07:29:51.507Z,3.05
2023-04-09T07:32:19.688Z,2.92
2023-04-09T07:34:47.736Z,2.90
2023-04-09T07:37:17.060Z,3.38
2023-04-09T07:39:44.991Z,2.78
2023-04-09T07:42:12.966Z,3.35
2023-04-09T07:44:41.119Z,3.05
2023-04-09T07:47:09.243Z,3.20
2023-04-09T07:49:38.083Z,3.00
2023-04-09T07:52:06.537Z,2.95
2023-04-09T07:54:36.550Z,3.05
2023-04-09T07:57:04.889Z,3.15
2023-04-09T07:59:32.916Z,3.00
2023-04-09T08:02:01.033Z,3.03
2023-04-09T08:04:29.418Z,3.28
2023-04-09T08:06:58.137Z,2.90
2023-04-09T08:09:26.514Z,3.00
2023-04-09T08:11:55.920Z,2.85
2023-04-09T08:14:23.948Z,2.97
2023-04-09T08:16:52.897Z,2.90
2023-04-09T08:19:21.817Z,2.90
2023-04-09T08:21:49.944Z,3.10
2023-04-09T08:24:18.477Z,3.28
2023-04-09T08:26:47.731Z,3.00
2023-04-09T08:29:18.136Z,2.80
2023-04-09T08:31:46.240Z,3.05
2023-04-09T08:34:16.290Z,2.75
2023-04-09T08:36:46.760Z,2.78
2023-04-09T08:39:14.731Z,2.65
2023-04-09T08:41:43.709Z,2.70
2023-04-09T08:44:11.735Z,2.30
2023-04-09T08:46:41.082Z,2.70
2023-04-09T08:49:10.059Z,2.75
2023-04-09T08:51:39.411Z,2.92
2023-04-09T08:54:07.524Z,2.97
2023-04-09T08:56:35.775Z,3.15
2023-04-09T08:59:03.747Z,3.00
2023-04-09T09:01:32.626Z,2.97
2023-04-09T09:04:04.335Z,3.08
2023-04-09T09:06:33.550Z,2.83
2023-04-09T09:09:03.635Z,2.63
2023-04-09T09:11:31.650Z,2.80
2023-04-09T09:14:00.348Z,2.80
2023-04-09T09:16:28.493Z,2.80
2023-04-09T09:18:57.438Z,2.70
2023-04-09T09:21:27.429Z,3.10
2023-04-09T09:23:55.476Z,2.60
2023-04-09T09:26:24.620Z,2.83
2023-04-09T09:28:52.967Z,2.90
2023-04-09T09:31:22.324Z,2.35
2023-04-09T09:33:50.687Z,2.67
2023-04-09T09:36:33.331Z,2.42
2023-04-09T09:39:03.851Z,2.90
2023-04-09T09:41:31.925Z,2.45
2023-04-09T09:43:59.916Z,2.70
2023-04-09T09:46:28.706Z,2.63
2023-04-09T09:48:56.852Z,2.67
2023-04-09T09:51:27.846Z,2.67
2023-04-09T09:53:58.292Z,2.53
2023-04-09T09:56:32.333Z,2.72
2023-04-09T09:59:07.599Z,2.47
2023-04-09T10:01:36.675Z,2.50
2023-04-09T10:04:05.984Z,2.30
2023-04-09T10:06:34.245Z,2.85
2023-04-09T10:09:06.414Z,2.78
2023-04-09T10:11:34.628Z,2.78
2023-04-09T10:14:02.707Z,2.45
2023-04-09T10:16:31.369Z,2.55
2023-04-09T10:19:00.351Z,2.63
2023-04-09T10:21:36.609Z,2.33
2023-04-09T10:24:07.993Z,2.40
2023-04-09T10:26:36.642Z,2.45
2023-04-09T10:29:07.019Z,2.20
2023-04-09T10:31:48.527Z,2.63
2023-04-09T10:34:17.213Z,2.33
2023-04-09T10:36:45.727Z,2.30
2023-04-09T10:39:15.110Z,2.50
2023-04-09T10:41:43.265Z,2.25
2023-04-09T10:44:21.543Z,2.17
2023-04-09T10:46:49.926Z,2.50
2023-04-09T10:49:18.870Z,2.30
2023-04-09T10:51:51.985Z,2.30
2023-04-09T10:54:46.802Z,2.35
2023-04-09T10:57:16.387Z,2.15
2023-04-09T10:59:45.268Z,2.13
2023-04-09T11:02:40.315Z,2.33
2023-04-09T11:05:20.439Z,2.42
2023-04-09T11:07:50.737Z,2.55
2023-04-09T11:10:20.705Z,2.20
2023-04-09T11:12:49.454Z,2.47
2023-04-09T11:15:18.292Z,2.70
2023-04-09T11:17:46.884Z,2.40
2023-04-09T11:20:15.163Z,2.63
2023-04-09T11:22:43.101Z,2.30
2023-04-09T11:25:11.175Z,2.47
2023-04-09T11:27:40.735Z,2.30
2023-04-09T11:30:09.843Z,2.10
2023-04-09T11:32:37.869Z,2.30
2023-04-09T11:35:07.027Z,2.35
2023-04-09T11:37:37.404Z,2.10
2023-04-09T11:40:05.969Z,2.38
2023-04-09T11:42:34.191Z,2.70
2023-04-09T11:45:03.648Z,2.40
2023-04-09T11:47:31.661Z,2.22
2023-04-09T11:49:59.744Z,2.42
2023-04-09T11:52:28.103Z,1.92
2023-04-09T11:54:56.097Z,2.22
2023-04-09T11:57:24.115Z,2.20
2023-04-09T11:59:52.128Z,2.25
2023-04-09T12:02:23.030Z,2.13
2023-04-09T12:04:51.774Z,2.22
2023-04-09T12:07:19.834Z,2.10
2023-04-09T12:09:49.261Z,2.20
2023-04-09T12:12:20.468Z,2.60
2023-04-09T12:14:48.613Z,2.17
2023-04-09T12:17:16.512Z,2.30
2023-04-09T12:19:45.834Z,2.50
2023-04-09T12:22:13.749Z,2.10
2023-04-09T12:24:41.726Z,2.20
2023-04-09T12:27:10.975Z,2.10
2023-04-09T12:29:38.990Z,1.98
2023-04-09T12:32:07.503Z,2.17
2023-04-09T12:34:36.030Z,2.50
2023-04-09T12:37:05.514Z,2.30
2023-04-09T12:39:34.488Z,2.20
2023-04-09T12:42:02.497Z,2.00
2023-04-09T12:44:30.501Z,2.10
2023-04-09T12:46:58.521Z,2.10
2023-04-09T12:49:26.446Z,2.22
2023-04-09T12:51:54.321Z,2.30
2023-04-09T12:54:23.675Z,2.03
2023-04-09T12:56:51.816Z,2.50
2023-04-09T12:59:19.887Z,1.98
2023-04-09T13:01:47.921Z,2.30
2023-04-09T13:04:16.482Z,1.92
2023-04-09T13:06:44.597Z,2.20
2023-04-09T13:09:12.498Z,1.98
2023-04-09T13:11:42.007Z,2.28
2023-04-09T13:14:13.624Z,2.20
2023-04-09T13:16:41.924Z,2.00
2023-04-09T13:19:10.264Z,1.90
2023-04-09T13:21:38.268Z,1.98
2023-04-09T13:24:06.892Z,2.08
2023-04-09T13:26:34.849Z,2.30
2023-04-09T13:29:04.367Z,2.30
2023-04-09T13:31:32.502Z,2.20
2023-04-09T13:34:00.925Z,2.20
2023-04-09T13:36:28.943Z,2.10
2023-04-09T13:39:04.141Z,2.00
2023-04-09T13:41:33.104Z,2.15
2023-04-09T13:44:01.247Z,2.10
2023-04-09T13:46:31.170Z,2.10
2023-04-09T13:48:59.136Z,2.20
2023-04-09T13:51:27.236Z,2.10
2023-04-09T13:53:55.276Z,2.20
2023-04-09T13:56:23.280Z,1.95
2023-04-09T13:58:51.896Z,2.17
2023-04-09T14:01:20.173Z,2.03
2023-04-09T14:03:49.553Z,2.00
2023-04-09T14:06:17.748Z,2.03
2023-04-09T14:08:45.950Z,2.30
2023-04-09T14:11:15.714Z,2.20
2023-04-09T14:13:43.703Z,2.20
2023-04-09T14:16:11.743Z,2.10
2023-04-09T14:18:40.056Z,2.08
2023-04-09T14:21:10.350Z,2.13
2023-04-09T14:23:38.554Z,1.80
2023-04-09T14:26:07.042Z,1.98
2023-04-09T14:28:35.057Z,2.00
2023-04-09T14:31:03.214Z,1.90
2023-04-09T14:33:31.432Z,1.90
2023-04-09T14:35:59.766Z,1.92
2023-04-09T14:38:29.417Z,1.90
2023-04-09T14:40:57.409Z,1.90
2023-04-09T14:43:25.565Z,2.13
2023-04-09T14:45:54.384Z,1.90
2023-04-09T14:48:22.345Z,1.70
2023-04-09T14:50:51.349Z,1.80
2023-04-09T14:53:19.370Z,2.13
2023-04-09T14:55:48.720Z,1.85
2023-04-09T14:58:16.724Z,2.20
2023-04-09T15:00:45.219Z,2.08
2023-04-09T15:03:13.458Z,2.22
2023-04-09T15:05:41.556Z,1.92
2023-04-09T15:08:09.595Z,1.80
2023-04-09T15:10:37.720Z,2.03
2023-04-09T15:13:07.029Z,2.00
2023-04-09T15:15:35.149Z,1.90
2023-04-09T15:18:05.937Z,2.10
2023-04-09T15:20:37.550Z,2.10
2023-04-09T15:23:05.521Z,2.20
2023-04-09T15:25:33.483Z,2.05
2023-04-09T15:28:01.533Z,1.85
2023-04-09T15:30:31.114Z,2.25
2023-04-09T15:32:59.093Z,2.17
2023-04-09T15:35:29.456Z,2.30
2023-04-09T15:37:57.711Z,2.00
2023-04-09T15:40:25.938Z,2.00
2023-04-09T15:42:53.906Z,2.00
2023-04-09T15:45:21.987Z,2.25
2023-04-09T15:47:51.472Z,1.92
2023-04-09T15:50:19.689Z,2.08
2023-04-09T15:52:48.817Z,2.00
2023-04-09T15:55:17.224Z,2.17
2023-04-09T15:57:46.831Z,2.17
2023-04-09T16:00:15.599Z,1.88
2023-04-09T16:02:43.631Z,2.10
2023-04-09T16:05:13.019Z,2.10
2023-04-09T16:07:41.245Z,2.00
2023-04-09T16:10:10.111Z,2.00
2023-04-09T16:12:38.036Z,2.10
2023-04-09T16:15:06.777Z,2.22
2023-04-09T16:17:40.565Z,2.10
2023-04-09T16:20:10.053Z,1.95
2023-04-09T16:22:39.418Z,2.05
2023-04-09T16:25:08.220Z,2.00
2023-04-09T16:27:36.219Z,2.20
2023-04-09T16:30:04.564Z,2.00
2023-04-09T16:32:32.738Z,1.77
2023-04-09T16:35:00.922Z,1.90
2023-04-09T16:37:29.386Z,2.28
2023-04-09T16:39:59.088Z,2.03
2023-04-09T16:42:27.428Z,2.10
2023-04-09T16:44:55.439Z,2.00
2023-04-09T16:47:23.385Z,1.95
2023-04-09T16:49:51.504Z,2.00
2023-04-09T16:52:19.527Z,1.95
2023-04-09T16:54:47.528Z,2.00
2023-04-09T16:57:17.192Z,2.08
2023-04-09T16:59:45.604Z,1.90
2023-04-09T17:02:13.541Z,1.90
2023-04-09T17:04:42.077Z,1.83
2023-04-09T17:07:10.010Z,1.90
2023-04-09T17:09:38.150Z,2.03
2023-04-09T17:12:06.157Z,1.90
2023-04-09T17:14:36.986Z,2.13
2023-04-09T17:17:05.171Z,2.42
2023-04-09T17:19:33.167Z,2.15
2023-04-09T17:22:01.236Z,2.25
2023-04-09T17:24:29.970Z,2.05
2023-04-09T17:26:57.854Z,2.40
2023-04-09T17:29:25.767Z,2.30
2023-04-09T17:31:55.315Z,2.25
2023-04-09T17:34:23.660Z,2.17
2023-04-09T17:36:56.545Z,2.10
2023-04-09T17:39:25.432Z,2.00
2023-04-09T17:41:56.339Z,2.10
2023-04-09T17:44:25.015Z,2.08
2023-04-09T17:46:54.463Z,2.20
2023-04-09T17:49:22.773Z,2.10
2023-04-09T17:51:50.796Z,1.98
2023-04-09T17:54:18.798Z,2.10
2023-04-09T17:56:47.034Z,1.90
2023-04-09T17:59:14.972Z,2.42
2023-04-09T18:01:43.109Z,2.50
2023-04-09T18:04:12.805Z,2.40
2023-04-09T18:06:41.169Z,2.47
2023-04-09T18:09:09.060Z,2.40
2023-04-09T18:11:37.148Z,2.42
2023-04-09T18:14:08.293Z,2.70
2023-04-09T18:16:38.132Z,2.08
2023-04-09T18:19:06.147Z,2.30
2023-04-09T18:21:36.475Z,2.60
2023-04-09T18:24:04.491Z,2.35
2023-04-09T18:26:33.813Z,2.67
2023-04-09T18:29:01.989Z,2.63
2023-04-09T18:31:30.094Z,2.80
2023-04-09T18:33:58.191Z,2.90
2023-04-09T18:36:28.181Z,3.00
2023-04-09T18:38:57.964Z,2.40
2023-04-09T18:41:26.164Z,2.70
2023-04-09T18:43:54.720Z,2.92
2023-04-09T18:46:22.931Z,2.95
2023-04-09T18:48:51.142Z,2.70
2023-04-09T18:51:20.757Z,2.63
2023-04-09T18:53:52.976Z,3.05
2023-04-09T18:56:22.448Z,2.30
2023-04-09T18:58:51.960Z,2.65
2023-04-09T19:01:20.807Z,2.67
2023-04-09T19:03:48.874Z,2.50
2023-04-09T19:06:18.026Z,2.85
2023-04-09T19:08:46.298Z,2.63
2023-04-09T19:11:14.359Z,2.47
2023-04-09T19:13:43.769Z,2.85
2023-04-09T19:16:12.446Z,2.80
2023-04-09T19:18:40.676Z,2.67
2023-04-09T19:21:09.053Z,2.80
2023-04-09T19:23:37.009Z,2.95
2023-04-09T19:26:05.727Z,2.63
2023-04-09T19:28:33.767Z,2.70
2023-04-09T19:33:31.942Z,2.60
2023-04-09T19:36:00.719Z,2.40
2023-04-09T19:38:28.792Z,2.80
2023-04-09T19:40:57.043Z,2.65
2023-04-09T19:43:25.057Z,2.60
2023-04-09T19:45:53.101Z,2.67
2023-04-09T19:48:22.472Z,2.60
2023-04-09T19:50:50.477Z,2.47
2023-04-09T19:53:18.550Z,2.70
2023-04-09T19:55:46.579Z,2.35
2023-04-09T19:58:14.479Z,2.50
2023-04-09T20:00:42.526Z,2.67
2023-04-09T20:03:10.682Z,2.70
2023-04-09T20:05:40.201Z,2.90
2023-04-09T20:08:12.378Z,2.53
2023-04-09T20:10:45.016Z,2.75
2023-04-09T20:13:12.953Z,2.42
2023-04-09T20:15:41.692Z,2.60
2023-04-09T20:18:09.912Z,2.63
2023-04-09T20:20:39.288Z,2.25
2023-04-09T20:23:07.159Z,2.38
2023-04-09T20:25:36.768Z,2.40
2023-04-09T20:28:04.909Z,2.58
2023-04-09T20:30:33.189Z,2.70
2023-04-09T20:33:02.770Z,2.30
2023-04-09T20:35:35.836Z,2.30
2023-04-09T20:38:07.603Z,2.30
2023-04-09T20:40:37.264Z,2.35
2023-04-09T20:43:05.322Z,2.50
2023-04-09T20:45:33.424Z,2.20
2023-04-09T20:48:01.558Z,2.38
2023-04-09T20:50:30.048Z,2.33
2023-04-09T20:52:59.391Z,2.10
2023-04-09T20:55:28.780Z,2.20
2023-04-09T20:57:56.678Z,2.13
2023-04-09T21:00:24.807Z,2.10
2023-04-09T21:02:52.844Z,2.13
2023-04-09T21:05:23.959Z,2.30
2023-04-09T21:07:52.257Z,2.55
2023-04-09T21:10:20.436Z,2.20
2023-04-09T21:12:49.813Z,2.30
2023-04-09T21:15:17.904Z,2.40
2023-04-09T21:17:46.020Z,2.60
2023-04-09T21:20:15.157Z,2.47
2023-04-09T21:22:43.271Z,2.50
2023-04-09T21:25:12.730Z,2.30
2023-04-09T21:27:42.567Z,2.30
2023-04-09T21:30:12.855Z,2.50
2023-04-09T21:32:40.909Z,2.40
2023-04-09T21:35:09.264Z,2.30
2023-04-09T21:37:46.138Z,2.20
2023-04-09T21:40:17.790Z,2.28
2023-04-09T21:42:49.204Z,2.33
2023-04-09T21:45:20.126Z,2.08
2023-04-09T21:47:48.195Z,2.28
2023-04-09T21:50:17.542Z,2.20
2023-04-09T21:52:46.912Z,2.10
2023-04-09T21:55:16.139Z,2.00
2023-04-09T21:57:45.365Z,2.20
2023-04-09T22:00:16.322Z,2.10
2023-04-09T22:02:47.298Z,2.10
2023-04-09T22:05:16.387Z,2.00
2023-04-09T22:07:45.711Z,2.40
2023-04-09T22:10:15.029Z,2.33
2023-04-09T22:12:44.352Z,2.25
2023-04-09T22:15:13.692Z,2.22
2023-04-09T22:17:42.734Z,2.20
2023-04-09T22:20:13.625Z,2.30
2023-04-09T22:22:43.913Z,2.22
2023-04-09T22:25:13.663Z,2.30
2023-04-09T22:27:43.567Z,2.17
2023-04-09T22:30:12.789Z,2.30
2023-04-09T22:32:42.234Z,2.15
2023-04-09T22:35:12.188Z,2.30
2023-04-09T22:37:42.734Z,2.10
2023-04-09T22:40:15.593Z,2.25
2023-04-09T22:42:43.757Z,2.67
2023-04-09T22:45:13.151Z,2.13
2023-04-09T22:47:42.279Z,2.28
2023-04-09T22:50:13.517Z,2.38
2023-04-09T22:52:44.004Z,2.22
2023-04-09T22:55:13.767Z,2.45
2023-04-09T22:57:44.377Z,2.30
2023-04-09T23:00:13.172Z,2.70
2023-04-09T23:02:43.319Z,2.05
2023-04-09T23:05:12.924Z,2.33
2023-04-09T23:07:45.107Z,2.08
2023-04-09T23:10:14.299Z,2.53
2023-04-09T23:12:43.750Z,2.20
2023-04-09T23:15:12.629Z,2.30
2023-04-09T23:17:42.781Z,2.40
2023-04-09T23:20:14.836Z,2.47
2023-04-09T23:22:46.921Z,2.15
2023-04-09T23:25:16.513Z,2.38
2023-04-09T23:27:46.736Z,2.38
2023-04-09T23:30:18.202Z,2.17
2023-04-09T23:32:47.624Z,2.40
2023-04-09T23:35:16.944Z,2.20
2023-04-09T23:37:54.524Z,2.20
2023-04-09T23:40:24.000Z,2.40
2023-04-09T23:42:52.051Z,2.72
2023-04-09T23:45:23.939Z,2.60
2023-04-09T23:47:53.770Z,2.45
2023-04-09T23:50:23.146Z,2.30
2023-04-09T23:52:59.854Z,2.08
2023-04-09T23:55:29.033Z,2.55
2023-04-09T23:57:58.176Z,2.35
